Time;durP1;ratioP1;P1;durP2;ratioP2;P2;SDS_P1;SDS_P2;PMS_P1;PMS_P2;Temp;Humidity;BMP_temperature;BMP_pressure;BME280_temperature;BME280_humidity;BME280_pressure;Samples;Min_cycle;Max_cycle;Signal;HPM_P1;HPM_P2
2023/05/08 00:01:21;;;;;;;19.63;17.97;;;;;;;;;;5034119;28;20447;-76
2023/05/08 00:03:49;;;;;;;19.57;17.87;;;;;;;;;;5026699;28;20519;-76
2023/05/08 00:06:19;;;;;;;19.60;17.70;;;;;;;;;;5021336;28;20479;-76
2023/05/08 00:08:51;;;;;;;20.47;18.40;;;;;;;;;;5033241;28;20521;-76
2023/05/08 00:11:19;;;;;;;20.00;18.30;;;;;;;;;;5036123;28;20441;-76
2023/05/08 00:13:56;;;;;;;17.57;16.07;;;;;;;;;;5036431;28;20504;-76
2023/05/08 00:16:30;;;;;;;18.10;16.33;;;;;;;;;;5036507;28;20451;-76
2023/05/08 00:19:01;;;;;;;17.80;16.30;;;;;;;;;;5037450;28;20497;-75
2023/05/08 00:21:31;;;;;;;17.03;15.43;;;;;;;;;;5037591;28;20486;-76
2023/05/08 00:24:03;;;;;;;22.10;19.87;;;;;;;;;;5037519;28;20476;-77
2023/05/08 00:26:35;;;;;;;18.50;16.80;;;;;;;;;;5038893;28;20566;-77
2023/05/08 00:29:22;;;;;;;17.10;15.50;;;;;;;;;;5039436;28;20456;-75
2023/05/08 00:31:56;;;;;;;15.20;13.67;;;;;;;;;;5039599;28;20432;-77
2023/05/08 00:34:28;;;;;;;15.80;14.43;;;;;;;;;;5039973;28;20485;-76
2023/05/08 00:37:03;;;;;;;15.23;13.93;;;;;;;;;;5039200;28;20455;-78
2023/05/08 00:39:54;;;;;;;;;;;;;;;;;;;;;
2023/05/08 00:42:38;;;;;;;13.93;12.83;;;;;;;;;;5017679;28;20514;-76
2023/05/08 00:45:35;;;;;;;;;;;;;;;;;;;;;
2023/05/08 00:48:09;;;;;;;13.53;12.33;;;;;;;;;;5015379;28;20471;-78
2023/05/08 00:50:44;;;;;;;14.00;12.90;;;;;;;;;;5015699;28;20459;-76
2023/05/08 00:53:15;;;;;;;12.83;11.80;;;;;;;;;;5016976;28;20466;-76
2023/05/08 00:55:53;;;;;;;13.43;12.17;;;;;;;;;;5019011;28;20447;-75
2023/05/08 00:58:22;;;;;;;14.10;12.80;;;;;;;;;;5019640;28;20507;-76
2023/05/08 01:00:53;;;;;;;13.77;12.67;;;;;;;;;;5019298;28;20451;-76
2023/05/08 01:03:23;;;;;;;13.80;12.60;;;;;;;;;;5019596;28;20455;-75
2023/05/08 01:05:54;;;;;;;15.07;13.87;;;;;;;;;;5018338;28;20494;-77
2023/05/08 01:08:38;;;;;;;15.73;14.33;;;;;;;;;;5017681;28;20483;-78
2023/05/08 01:11:13;;;;;;;15.27;13.77;;;;;;;;;;5017912;28;20432;-76
2023/05/08 01:13:57;;;;;;;16.03;14.83;;;;;;;;;;5019203;28;20412;-80
2023/05/08 01:16:33;;;;;;;15.80;14.40;;;;;;;;;;5018873;28;20442;-77
2023/05/08 01:19:08;;;;;;;16.33;14.70;;;;;;;;;;5017010;28;20490;-76
2023/05/08 01:21:43;;;;;;;15.07;13.70;;;;;;;;;;5015799;28;20455;-76
2023/05/08 01:24:36;;;;;;;15.93;14.63;;;;;;;;;;5017357;28;20450;-76
2023/05/08 01:27:22;;;;;;;16.57;15.17;;;;;;;;;;5018314;28;20498;-77
2023/05/08 01:30:12;;;;;;;17.57;16.07;;;;;;;;;;5017798;28;20458;-77
2023/05/08 01:32:43;;;;;;;16.27;14.97;;;;;;;;;;5029983;28;20423;-77
2023/05/08 01:35:15;;;;;;;17.40;15.90;;;;;;;;;;5030918;28;20464;-77
2023/05/08 01:37:50;;;;;;;16.50;15.00;;;;;;;;;;5030562;28;20467;-76
2023/05/08 01:40:33;;;;;;;17.60;16.10;;;;;;;;;;5031402;28;20419;-76
2023/05/08 01:43:07;;;;;;;18.30;16.70;;;;;;;;;;5030795;28;20551;-77
2023/05/08 01:45:39;;;;;;;16.90;15.47;;;;;;;;;;5031319;28;20509;-77
2023/05/08 01:48:13;;;;;;;17.00;15.50;;;;;;;;;;5032042;28;20506;-76
2023/05/08 01:50:47;;;;;;;16.30;14.90;;;;;;;;;;5021241;28;20909;-76
2023/05/08 01:53:22;;;;;;;16.33;14.93;;;;;;;;;;5017698;28;20464;-76
2023/05/08 01:55:52;;;;;;;18.27;16.37;;;;;;;;;;5017067;28;20458;-76
2023/05/08 01:58:27;;;;;;;17.40;15.90;;;;;;;;;;5015354;28;20471;-77
2023/05/08 02:00:59;;;;;;;17.17;15.67;;;;;;;;;;5014605;28;20501;-76
2023/05/08 02:03:35;;;;;;;17.67;16.00;;;;;;;;;;5013962;28;20447;-75
2023/05/08 02:06:04;;;;;;;17.47;15.77;;;;;;;;;;5015137;28;20509;-76
2023/05/08 02:08:36;;;;;;;17.37;15.77;;;;;;;;;;5014786;28;20462;-75
2023/05/08 02:11:11;;;;;;;16.93;15.27;;;;;;;;;;5014600;28;20459;-76
2023/05/08 02:13:43;;;;;;;17.87;16.03;;;;;;;;;;5014077;28;20454;-76
2023/05/08 02:16:12;;;;;;;17.80;16.00;;;;;;;;;;5014507;28;20443;-75
2023/05/08 02:18:55;;;;;;;19.10;17.17;;;;;;;;;;5014659;28;20494;-75
2023/05/08 02:21:24;;;;;;;18.00;16.40;;;;;;;;;;5014767;28;20960;-76
2023/05/08 02:23:55;;;;;;;18.70;17.00;;;;;;;;;;5016470;28;20517;-75
2023/05/08 02:26:24;;;;;;;18.07;16.53;;;;;;;;;;5019647;28;20475;-77
2023/05/08 02:28:55;;;;;;;19.10;17.17;;;;;;;;;;5034372;28;20467;-77
2023/05/08 02:31:23;;;;;;;20.70;18.80;;;;;;;;;;5034700;28;20447;-75
2023/05/08 02:33:53;;;;;;;20.87;19.00;;;;;;;;;;5034861;28;21013;-76
2023/05/08 02:36:23;;;;;;;20.87;18.77;;;;;;;;;;5035919;28;20451;-75
2023/05/08 02:39:03;;;;;;;18.90;17.17;;;;;;;;;;5035937;28;20486;-76
2023/05/08 02:41:33;;;;;;;19.90;18.00;;;;;;;;;;5036536;28;20499;-76
2023/05/08 02:44:01;;;;;;;20.73;18.70;;;;;;;;;;5036843;28;20439;-77
2023/05/08 02:46:37;;;;;;;19.17;17.50;;;;;;;;;;5037620;28;20487;-76
2023/05/08 02:49:15;;;;;;;19.77;17.87;;;;;;;;;;5037609;28;20436;-78
2023/05/08 02:51:48;;;;;;;18.83;17.03;;;;;;;;;;5036412;28;20570;-76
2023/05/08 02:54:25;;;;;;;18.87;16.97;;;;;;;;;;5025899;28;20534;-76
2023/05/08 02:56:58;;;;;;;18.13;16.47;;;;;;;;;;5021512;28;20513;-77
2023/05/08 02:59:31;;;;;;;19.30;17.50;;;;;;;;;;5020191;28;20455;-75
2023/05/08 03:02:15;;;;;;;17.50;15.80;;;;;;;;;;5018090;28;20540;-76
2023/05/08 03:04:51;;;;;;;17.17;15.60;;;;;;;;;;5017550;28;20835;-74
2023/05/08 03:07:21;;;;;;;18.63;17.00;;;;;;;;;;5022543;28;20546;-77
2023/05/08 03:09:50;;;;;;;17.43;15.93;;;;;;;;;;5026174;28;20474;-77
2023/05/08 03:12:26;;;;;;;17.23;15.63;;;;;;;;;;5021331;28;20562;-76
2023/05/08 03:15:01;;;;;;;18.20;16.40;;;;;;;;;;5020936;28;20455;-77
2023/05/08 03:17:42;;;;;;;16.77;15.37;;;;;;;;;;5021024;28;20482;-76
2023/05/08 03:20:17;;;;;;;16.67;15.17;;;;;;;;;;5022590;28;20412;-76
2023/05/08 03:22:49;;;;;;;17.50;15.90;;;;;;;;;;5020047;28;20466;-79
2023/05/08 03:25:20;;;;;;;17.10;15.60;;;;;;;;;;5019727;28;20451;-76
2023/05/08 03:27:49;;;;;;;18.70;17.10;;;;;;;;;;5020869;28;20490;-76
2023/05/08 03:30:21;;;;;;;17.03;15.53;;;;;;;;;;5022597;28;20463;-77
2023/05/08 03:32:52;;;;;;;19.03;17.30;;;;;;;;;;5022621;28;20470;-78
2023/05/08 03:35:23;;;;;;;17.47;15.87;;;;;;;;;;5026685;28;20860;-78
2023/05/08 03:37:53;;;;;;;18.70;17.10;;;;;;;;;;5030901;28;20455;-76
2023/05/08 03:40:22;;;;;;;17.07;15.47;;;;;;;;;;5029329;28;20459;-76
2023/05/08 03:42:56;;;;;;;17.40;15.90;;;;;;;;;;5027910;28;20443;-76
2023/05/08 03:45:25;;;;;;;18.13;16.50;;;;;;;;;;5023520;28;20455;-76
2023/05/08 03:47:55;;;;;;;19.20;17.30;;;;;;;;;;5023096;28;20498;-76
2023/05/08 03:50:32;;;;;;;19.30;17.50;;;;;;;;;;5023431;28;20455;-76
2023/05/08 03:53:09;;;;;;;18.27;16.47;;;;;;;;;;5023094;28;20547;-76
2023/05/08 03:55:38;;;;;;;16.90;15.30;;;;;;;;;;5027550;28;20490;-76
2023/05/08 03:58:11;;;;;;;16.97;15.40;;;;;;;;;;5026935;28;20466;-77
2023/05/08 04:00:48;;;;;;;18.57;16.77;;;;;;;;;;5027737;28;20523;-77
2023/05/08 04:03:24;;;;;;;18.43;16.60;;;;;;;;;;5026543;28;20469;-76
2023/05/08 04:06:07;;;;;;;17.90;16.50;;;;;;;;;;5026684;28;20457;-77
2023/05/08 04:08:41;;;;;;;17.57;16.10;;;;;;;;;;5027576;28;20466;-76
2023/05/08 04:11:18;;;;;;;17.20;15.80;;;;;;;;;;5027239;28;20482;-76
2023/05/08 04:13:53;;;;;;;18.27;16.60;;;;;;;;;;5026520;28;20486;-75
2023/05/08 04:16:28;;;;;;;18.27;16.67;;;;;;;;;;5025232;28;20443;-77
2023/05/08 04:19:04;;;;;;;17.30;15.90;;;;;;;;;;5023120;28;20466;-76
2023/05/08 04:21:46;;;;;;;18.97;17.37;;;;;;;;;;5024947;28;20458;-77
2023/05/08 04:24:22;;;;;;;17.77;16.10;;;;;;;;;;5025020;28;20479;-77
2023/05/08 04:26:50;;;;;;;17.03;15.53;;;;;;;;;;5024580;28;20467;-76
2023/05/08 04:29:19;;;;;;;17.47;15.97;;;;;;;;;;5023542;28;20459;-77
2023/05/08 04:31:50;;;;;;;16.97;15.47;;;;;;;;;;5024493;28;20451;-76
2023/05/08 04:34:18;;;;;;;17.87;16.30;;;;;;;;;;5026098;28;20478;-77
2023/05/08 04:36:48;;;;;;;16.93;15.33;;;;;;;;;;5029685;28;20447;-77
2023/05/08 04:39:17;;;;;;;18.43;16.77;;;;;;;;;;5030352;28;20523;-76
2023/05/08 04:41:46;;;;;;;17.23;15.63;;;;;;;;;;5033097;28;20471;-77
2023/05/08 04:44:15;;;;;;;17.23;15.57;;;;;;;;;;5032786;28;20443;-76
2023/05/08 04:46:44;;;;;;;16.77;15.37;;;;;;;;;;5033443;28;20498;-77
2023/05/08 04:49:22;;;;;;;16.63;15.20;;;;;;;;;;5034036;28;20491;-76
2023/05/08 04:51:55;;;;;;;15.97;14.57;;;;;;;;;;5035990;28;20440;-76
2023/05/08 04:54:23;;;;;;;16.00;14.70;;;;;;;;;;5036544;28;20412;-77
2023/05/08 04:56:50;;;;;;;16.47;15.13;;;;;;;;;;5038835;28;20431;-74
2023/05/08 04:59:18;;;;;;;14.87;13.57;;;;;;;;;;5038955;28;20483;-76
2023/05/08 05:01:46;;;;;;;16.20;14.70;;;;;;;;;;5035465;28;20434;-77
2023/05/08 05:04:15;;;;;;;18.33;16.73;;;;;;;;;;5034554;28;20482;-75
2023/05/08 05:06:45;;;;;;;17.50;15.97;;;;;;;;;;5032694;28;20499;-78
2023/05/08 05:09:14;;;;;;;22.90;20.90;;;;;;;;;;5031254;28;20483;-76
2023/05/08 05:11:42;;;;;;;16.20;14.90;;;;;;;;;;5025902;28;20451;-79
2023/05/08 05:14:10;;;;;;;17.77;16.37;;;;;;;;;;5026374;28;20466;-77
2023/05/08 05:16:37;;;;;;;17.20;15.60;;;;;;;;;;5028457;28;20447;-79
2023/05/08 05:19:11;;;;;;;15.43;14.20;;;;;;;;;;5020408;28;20475;-78
2023/05/08 05:21:43;;;;;;;15.80;14.50;;;;;;;;;;5018099;28;20490;-77
2023/05/08 05:24:11;;;;;;;16.43;15.13;;;;;;;;;;5023104;28;20453;-78
2023/05/08 05:26:44;;;;;;;17.80;16.27;;;;;;;;;;5024567;28;20475;-78
2023/05/08 05:29:13;;;;;;;15.80;14.40;;;;;;;;;;5025387;28;20472;-77
2023/05/08 05:31:46;;;;;;;16.30;15.00;;;;;;;;;;5024509;28;20451;-77
2023/05/08 05:34:16;;;;;;;16.97;15.37;;;;;;;;;;5020485;28;20452;-76
2023/05/08 05:36:44;;;;;;;16.53;15.20;;;;;;;;;;5016838;28;20447;-78
2023/05/08 05:39:12;;;;;;;16.53;15.20;;;;;;;;;;5020121;28;20498;-77
2023/05/08 05:41:44;;;;;;;21.33;19.50;;;;;;;;;;5021252;28;20472;-78
2023/05/08 05:44:13;;;;;;;18.10;16.40;;;;;;;;;;5021231;28;20455;-77
2023/05/08 05:46:43;;;;;;;16.87;15.27;;;;;;;;;;5018358;28;20481;-77
2023/05/08 05:49:11;;;;;;;16.60;15.13;;;;;;;;;;5020029;28;20479;-77
2023/05/08 05:51:42;;;;;;;16.63;15.13;;;;;;;;;;5021741;28;20475;-77
2023/05/08 05:54:10;;;;;;;17.57;15.97;;;;;;;;;;5023313;28;20452;-77
2023/05/08 05:56:38;;;;;;;17.87;16.27;;;;;;;;;;5025317;28;20456;-77
2023/05/08 05:59:08;;;;;;;16.47;14.87;;;;;;;;;;5024839;28;20554;-77
2023/05/08 06:01:35;;;;;;;17.10;15.70;;;;;;;;;;5024882;28;20451;-78
2023/05/08 06:04:04;;;;;;;16.87;15.40;;;;;;;;;;5021620;28;20451;-79
2023/05/08 06:06:33;;;;;;;16.93;15.53;;;;;;;;;;5020307;28;20469;-78
2023/05/08 06:09:03;;;;;;;16.93;15.33;;;;;;;;;;5020460;28;20471;-77
2023/05/08 06:11:32;;;;;;;16.70;15.40;;;;;;;;;;5019782;28;20447;-77
2023/05/08 06:14:00;;;;;;;17.73;15.93;;;;;;;;;;5020343;28;20444;-77
2023/05/08 06:16:35;;;;;;;15.30;14.00;;;;;;;;;;5021431;28;20459;-77
2023/05/08 06:19:08;;;;;;;18.23;16.67;;;;;;;;;;5020415;28;20974;-76
2023/05/08 06:21:38;;;;;;;17.23;15.83;;;;;;;;;;5018470;28;20436;-76
2023/05/08 06:24:09;;;;;;;16.73;15.33;;;;;;;;;;5018470;28;20458;-77
2023/05/08 06:26:38;;;;;;;17.13;15.60;;;;;;;;;;5021781;28;20453;-76
2023/05/08 06:29:06;;;;;;;16.80;15.20;;;;;;;;;;5028669;28;20479;-76
2023/05/08 06:31:36;;;;;;;16.80;15.40;;;;;;;;;;5030148;28;20448;-75
2023/05/08 06:34:04;;;;;;;16.67;15.30;;;;;;;;;;5030557;28;20478;-78
2023/05/08 06:36:35;;;;;;;15.50;14.30;;;;;;;;;;5031732;28;20461;-79
2023/05/08 06:39:05;;;;;;;16.63;15.23;;;;;;;;;;5031245;28;20476;-77
2023/05/08 06:41:34;;;;;;;16.07;14.77;;;;;;;;;;5030408;28;20447;-75
2023/05/08 06:44:02;;;;;;;16.83;15.43;;;;;;;;;;5030324;28;20436;-78
2023/05/08 06:46:29;;;;;;;16.40;14.87;;;;;;;;;;5029337;28;20503;-77
2023/05/08 06:49:00;;;;;;;17.63;16.03;;;;;;;;;;5031483;28;20466;-76
2023/05/08 06:51:28;;;;;;;19.30;17.70;;;;;;;;;;5032731;28;20447;-78
2023/05/08 06:53:55;;;;;;;18.67;16.83;;;;;;;;;;5031374;28;20447;-75
2023/05/08 06:56:26;;;;;;;17.43;15.93;;;;;;;;;;5035936;28;20447;-77
2023/05/08 06:58:54;;;;;;;16.30;14.90;;;;;;;;;;5027768;28;20451;-77
2023/05/08 07:01:22;;;;;;;16.77;15.27;;;;;;;;;;5012781;28;20557;-77
2023/05/08 07:03:51;;;;;;;17.00;15.50;;;;;;;;;;5011573;28;20466;-79
2023/05/08 07:06:22;;;;;;;16.33;14.93;;;;;;;;;;5012112;28;20443;-77
2023/05/08 07:08:54;;;;;;;16.87;15.37;;;;;;;;;;5011884;28;20531;-78
2023/05/08 07:11:22;;;;;;;17.73;16.23;;;;;;;;;;5011935;28;20909;-78
2023/05/08 07:13:50;;;;;;;17.87;16.30;;;;;;;;;;5011556;28;20609;-77
2023/05/08 07:16:19;;;;;;;17.47;16.07;;;;;;;;;;5012258;28;20542;-79
2023/05/08 07:18:46;;;;;;;17.87;16.10;;;;;;;;;;5013353;28;20484;-79
2023/05/08 07:21:17;;;;;;;15.43;14.13;;;;;;;;;;5011846;28;20511;-78
2023/05/08 07:23:50;;;;;;;17.53;16.07;;;;;;;;;;5013371;28;20466;-77
2023/05/08 07:26:22;;;;;;;16.77;15.30;;;;;;;;;;5014604;28;20493;-77
2023/05/08 07:28:53;;;;;;;17.60;16.10;;;;;;;;;;5021743;28;20494;-78
2023/05/08 07:31:26;;;;;;;17.20;15.80;;;;;;;;;;5024441;28;20519;-77
2023/05/08 07:33:57;;;;;;;18.10;16.50;;;;;;;;;;5022749;28;20455;-77
2023/05/08 07:36:25;;;;;;;17.47;15.97;;;;;;;;;;5017634;28;20570;-79
2023/05/08 07:38:55;;;;;;;16.97;15.57;;;;;;;;;;5021718;28;20487;-77
2023/05/08 07:41:23;;;;;;;17.17;15.77;;;;;;;;;;5019667;28;20451;-77
2023/05/08 07:43:53;;;;;;;16.50;14.93;;;;;;;;;;5019443;28;20466;-79
2023/05/08 07:46:22;;;;;;;15.07;13.87;;;;;;;;;;5019386;28;20445;-78
2023/05/08 07:48:57;;;;;;;15.97;14.77;;;;;;;;;;5019559;28;21090;-76
2023/05/08 07:51:25;;;;;;;15.67;13.93;;;;;;;;;;5020141;28;20464;-77
2023/05/08 07:53:58;;;;;;;14.90;13.57;;;;;;;;;;5013846;28;20444;-77
2023/05/08 07:56:26;;;;;;;14.83;13.63;;;;;;;;;;5016364;28;20517;-77
2023/05/08 07:59:00;;;;;;;15.53;14.23;;;;;;;;;;5018236;28;20528;-78
2023/05/08 08:01:27;;;;;;;14.50;13.40;;;;;;;;;;5019717;28;20451;-76
2023/05/08 08:03:55;;;;;;;15.90;14.60;;;;;;;;;;5023768;28;20435;-78
2023/05/08 08:06:23;;;;;;;16.13;14.80;;;;;;;;;;5027710;28;20449;-78
2023/05/08 08:08:51;;;;;;;15.80;14.50;;;;;;;;;;5029389;28;20498;-78
2023/05/08 08:11:22;;;;;;;15.57;14.13;;;;;;;;;;5030575;28;20439;-77
2023/05/08 08:13:51;;;;;;;15.10;14.00;;;;;;;;;;5029637;28;20444;-77
2023/05/08 08:16:22;;;;;;;16.70;15.10;;;;;;;;;;5029992;28;20451;-77
2023/05/08 08:18:51;;;;;;;15.87;14.47;;;;;;;;;;5029521;28;20471;-78
2023/05/08 08:21:22;;;;;;;14.37;13.17;;;;;;;;;;5030638;28;20497;-77
2023/05/08 08:23:50;;;;;;;15.50;14.30;;;;;;;;;;5030783;28;20546;-78
2023/05/08 08:26:18;;;;;;;15.20;13.83;;;;;;;;;;5032098;28;20474;-77
2023/05/08 08:28:48;;;;;;;15.67;14.10;;;;;;;;;;5033264;28;20483;-77
2023/05/08 08:31:18;;;;;;;15.53;14.13;;;;;;;;;;5032392;28;20519;-77
2023/05/08 08:33:47;;;;;;;15.07;13.83;;;;;;;;;;5033157;28;20475;-79
2023/05/08 08:36:16;;;;;;;14.87;13.70;;;;;;;;;;5028967;28;20455;-79
2023/05/08 08:38:46;;;;;;;16.47;15.00;;;;;;;;;;5031259;28;20523;-78
2023/05/08 08:41:20;;;;;;;15.37;14.07;;;;;;;;;;5032443;28;20466;-78
2023/05/08 08:43:49;;;;;;;13.70;12.70;;;;;;;;;;5033680;28;20977;-75
2023/05/08 08:46:25;;;;;;;12.80;11.70;;;;;;;;;;5035890;28;20431;-78
2023/05/08 08:48:55;;;;;;;13.60;12.40;;;;;;;;;;5037046;28;20511;-78
2023/05/08 08:51:27;;;;;;;12.87;10.63;;;;;;;;;;5038078;28;20420;-79
2023/05/08 08:54:02;;;;;;;13.23;11.90;;;;;;;;;;5039158;28;20408;-77
2023/05/08 08:56:30;;;;;;;12.97;11.70;;;;;;;;;;5030970;28;20447;-77
2023/05/08 08:59:03;;;;;;;13.57;12.27;;;;;;;;;;5023752;28;20475;-78
2023/05/08 09:01:40;;;;;;;12.20;11.03;;;;;;;;;;5022794;28;20459;-77
2023/05/08 09:04:09;;;;;;;12.67;11.53;;;;;;;;;;5015515;28;20467;-77
2023/05/08 09:06:39;;;;;;;11.20;10.20;;;;;;;;;;5018611;28;20463;-77
2023/05/08 09:09:09;;;;;;;11.10;10.10;;;;;;;;;;5020211;28;20491;-78
2023/05/08 09:11:37;;;;;;;12.17;10.70;;;;;;;;;;5020936;28;20460;-77
2023/05/08 09:14:08;;;;;;;14.10;10.70;;;;;;;;;;5020036;28;20443;-79
2023/05/08 09:16:36;;;;;;;10.93;9.93;;;;;;;;;;5020936;28;20462;-77
2023/05/08 09:19:05;;;;;;;11.90;10.80;;;;;;;;;;5020169;28;21190;-76
2023/05/08 09:21:36;;;;;;;11.13;10.10;;;;;;;;;;5022220;28;20442;-78
2023/05/08 09:24:06;;;;;;;14.13;10.20;;;;;;;;;;5024056;28;20447;-78
2023/05/08 09:26:37;;;;;;;10.60;9.60;;;;;;;;;;5021401;28;20448;-79
2023/05/08 09:29:10;;;;;;;11.53;10.43;;;;;;;;;;5013888;28;20486;-79
2023/05/08 09:31:40;;;;;;;12.00;10.70;;;;;;;;;;5017319;28;20448;-77
2023/05/08 09:34:08;;;;;;;11.80;10.80;;;;;;;;;;5020986;28;20439;-78
2023/05/08 09:36:37;;;;;;;12.33;11.23;;;;;;;;;;5027245;28;20444;-79
2023/05/08 09:39:10;;;;;;;11.80;10.80;;;;;;;;;;5025659;28;20483;-77
2023/05/08 09:41:37;;;;;;;12.57;11.57;;;;;;;;;;5026367;28;20486;-78
2023/05/08 09:44:07;;;;;;;12.33;11.23;;;;;;;;;;5030012;28;20443;-77
2023/05/08 09:46:37;;;;;;;12.73;11.57;;;;;;;;;;5033380;28;20438;-75
2023/05/08 09:49:07;;;;;;;13.00;11.80;;;;;;;;;;5024691;28;20513;-78
2023/05/08 09:51:36;;;;;;;12.90;11.80;;;;;;;;;;5025186;28;20510;-78
2023/05/08 09:54:19;;;;;;;14.30;13.10;;;;;;;;;;5024688;28;20451;-77
2023/05/08 09:56:49;;;;;;;14.13;12.63;;;;;;;;;;5021263;28;20470;-78
2023/05/08 09:59:26;;;;;;;12.43;11.27;;;;;;;;;;5020649;28;20467;-77
2023/05/08 10:01:56;;;;;;;11.43;10.50;;;;;;;;;;5020396;28;20447;-78
2023/05/08 10:04:34;;;;;;;13.10;11.90;;;;;;;;;;5019533;28;20447;-78
2023/05/08 10:07:02;;;;;;;13.20;11.73;;;;;;;;;;5019918;28;20459;-77
2023/05/08 10:09:31;;;;;;;13.63;12.30;;;;;;;;;;5021496;28;20478;-78
2023/05/08 10:12:04;;;;;;;11.93;10.93;;;;;;;;;;5021870;28;20435;-78
2023/05/08 10:14:33;;;;;;;13.33;12.03;;;;;;;;;;5022778;28;20554;-77
2023/05/08 10:17:07;;;;;;;11.57;10.57;;;;;;;;;;5025125;28;20455;-77
2023/05/08 10:19:39;;;;;;;12.30;11.30;;;;;;;;;;5029619;28;20464;-79
2023/05/08 10:22:08;;;;;;;11.53;10.40;;;;;;;;;;5024472;28;20482;-78
2023/05/08 10:24:35;;;;;;;13.20;11.77;;;;;;;;;;5022579;28;20460;-79
2023/05/08 10:27:06;;;;;;;12.23;11.23;;;;;;;;;;5030037;28;20439;-80
2023/05/08 10:29:34;;;;;;;13.00;11.70;;;;;;;;;;5036800;28;20475;-79
2023/05/08 10:32:03;;;;;;;13.20;11.80;;;;;;;;;;5034279;28;20447;-77
2023/05/08 10:34:32;;;;;;;12.93;11.77;;;;;;;;;;5021039;28;20436;-76
2023/05/08 10:37:00;;;;;;;12.50;11.40;;;;;;;;;;5019900;28;20455;-79
2023/05/08 10:39:27;;;;;;;12.60;11.40;;;;;;;;;;5020059;28;20496;-77
2023/05/08 10:41:55;;;;;;;15.97;14.57;;;;;;;;;;5020089;28;20546;-80
2023/05/08 10:44:23;;;;;;;11.70;10.67;;;;;;;;;;5014268;28;20452;-78
2023/05/08 10:46:54;;;;;;;11.13;10.10;;;;;;;;;;5013954;28;20447;-78
2023/05/08 10:49:27;;;;;;;10.47;9.67;;;;;;;;;;5014925;28;20483;-78
2023/05/08 10:52:08;;;;;;;13.27;12.07;;;;;;;;;;5017211;28;20502;-77
2023/05/08 10:54:39;;;;;;;12.80;11.70;;;;;;;;;;5017674;28;20458;-76
2023/05/08 10:57:11;;;;;;;12.00;10.90;;;;;;;;;;5016301;28;20459;-78
2023/05/08 10:59:40;;;;;;;10.40;8.90;;;;;;;;;;5016780;28;20467;-78
2023/05/08 11:02:09;;;;;;;11.00;9.80;;;;;;;;;;5017772;28;20466;-76
2023/05/08 11:04:37;;;;;;;11.07;10.00;;;;;;;;;;5016878;28;20462;-79
2023/05/08 11:07:07;;;;;;;11.70;10.70;;;;;;;;;;5016830;28;20455;-77
2023/05/08 11:09:48;;;;;;;11.70;10.57;;;;;;;;;;5015676;28;20487;-78
2023/05/08 11:12:21;;;;;;;11.93;10.83;;;;;;;;;;5016454;28;20455;-78
2023/05/08 11:14:57;;;;;;;8.97;8.20;;;;;;;;;;5016810;28;20447;-77
2023/05/08 11:17:25;;;;;;;6.87;6.27;;;;;;;;;;5017055;28;20455;-77
2023/05/08 11:19:59;;;;;;;7.27;6.77;;;;;;;;;;5016408;28;20467;-76
2023/05/08 11:22:31;;;;;;;8.17;7.47;;;;;;;;;;5018475;28;20486;-78
2023/05/08 11:25:06;;;;;;;8.00;7.40;;;;;;;;;;5017639;28;20546;-79
2023/05/08 11:27:35;;;;;;;8.97;8.17;;;;;;;;;;5017085;28;20478;-78
2023/05/08 11:30:21;;;;;;;10.40;9.50;;;;;;;;;;5017362;28;20570;-80
2023/05/08 11:33:14;;;;;;;10.10;8.20;;;;;;;;;;5019545;28;20474;-79
2023/05/08 11:35:43;;;;;;;8.87;8.10;;;;;;;;;;5000971;28;20496;-78
2023/05/08 11:38:20;;;;;;;7.80;7.20;;;;;;;;;;5018615;28;20471;-76
2023/05/08 11:40:55;;;;;;;7.47;6.83;;;;;;;;;;5017281;28;20472;-79
2023/05/08 11:43:53;;;;;;;6.53;6.03;;;;;;;;;;5016438;28;20427;-79
2023/05/08 11:46:24;;;;;;;7.43;6.83;;;;;;;;;;5017507;28;20477;-79
2023/05/08 11:49:00;;;;;;;10.77;9.67;;;;;;;;;;5016456;28;20988;-77
2023/05/08 11:51:32;;;;;;;9.60;8.73;;;;;;;;;;5016919;28;20509;-76
2023/05/08 11:54:02;;;;;;;9.93;9.03;;;;;;;;;;5017864;28;20638;-78
2023/05/08 11:56:30;;;;;;;11.23;10.33;;;;;;;;;;5017713;28;20466;-77
2023/05/08 11:59:10;;;;;;;10.77;9.87;;;;;;;;;;5018795;28;20514;-79
2023/05/08 12:01:42;;;;;;;11.60;10.60;;;;;;;;;;5019107;28;20439;-77
2023/05/08 12:04:13;;;;;;;11.40;10.13;;;;;;;;;;5019193;28;20457;-79
2023/05/08 12:06:42;;;;;;;10.33;9.33;;;;;;;;;;5018906;28;20439;-78
2023/05/08 12:09:16;;;;;;;10.90;10.00;;;;;;;;;;5022173;28;20490;-79
2023/05/08 12:11:45;;;;;;;10.67;9.53;;;;;;;;;;5020371;28;20434;-77
2023/05/08 12:14:15;;;;;;;10.90;10.00;;;;;;;;;;5020097;28;20518;-77
2023/05/08 12:16:44;;;;;;;9.97;9.17;;;;;;;;;;5020444;28;20521;-76
2023/05/08 12:19:15;;;;;;;10.43;9.53;;;;;;;;;;5021296;28;20463;-77
2023/05/08 12:21:50;;;;;;;9.27;8.43;;;;;;;;;;5018349;28;20483;-77
2023/05/08 12:24:21;;;;;;;9.30;8.40;;;;;;;;;;5016339;28;20435;-78
2023/05/08 12:26:57;;;;;;;10.20;9.40;;;;;;;;;;5015543;28;20459;-76
2023/05/08 12:29:25;;;;;;;9.27;8.50;;;;;;;;;;5014912;28;21012;-77
2023/05/08 12:32:01;;;;;;;9.63;8.97;;;;;;;;;;5014670;28;20466;-78
2023/05/08 12:34:29;;;;;;;9.23;8.30;;;;;;;;;;5014630;28;20494;-77
2023/05/08 12:37:03;;;;;;;8.50;7.90;;;;;;;;;;5014784;28;20523;-80
2023/05/08 12:39:47;;;;;;;8.90;8.10;;;;;;;;;;5015341;28;20517;-78
2023/05/08 12:42:16;;;;;;;9.67;8.77;;;;;;;;;;5015931;28;20831;-78
2023/05/08 12:44:51;;;;;;;10.27;9.50;;;;;;;;;;5017122;28;20462;-78
2023/05/08 12:47:19;;;;;;;9.20;8.40;;;;;;;;;;5017651;28;20463;-80
2023/05/08 12:49:51;;;;;;;10.70;9.87;;;;;;;;;;5014735;28;20493;-77
2023/05/08 12:52:19;;;;;;;9.33;8.67;;;;;;;;;;5015014;28;20490;-78
2023/05/08 12:54:49;;;;;;;8.13;7.40;;;;;;;;;;5014013;28;20458;-76
2023/05/08 12:57:22;;;;;;;9.90;9.00;;;;;;;;;;5014212;28;20498;-77
2023/05/08 13:00:04;;;;;;;10.23;9.10;;;;;;;;;;5014618;28;20475;-79
2023/05/08 13:02:37;;;;;;;9.60;8.90;;;;;;;;;;5015530;28;20535;-81
2023/05/08 13:05:05;;;;;;;10.10;9.17;;;;;;;;;;5017474;28;20455;-78
2023/05/08 13:07:34;;;;;;;11.30;10.40;;;;;;;;;;5016747;28;20493;-76
2023/05/08 13:10:05;;;;;;;8.97;8.27;;;;;;;;;;5016085;28;20491;-76
2023/05/08 13:12:33;;;;;;;9.70;9.00;;;;;;;;;;5015794;28;20519;-79
2023/05/08 13:15:03;;;;;;;8.23;7.63;;;;;;;;;;5022134;28;20467;-77
2023/05/08 13:17:31;;;;;;;8.47;7.67;;;;;;;;;;5020880;28;20487;-77
2023/05/08 13:20:03;;;;;;;8.30;7.70;;;;;;;;;;5016312;28;20464;-78
2023/05/08 13:22:32;;;;;;;9.23;8.60;;;;;;;;;;5017368;28;20542;-77
2023/05/08 13:25:01;;;;;;;8.77;7.10;;;;;;;;;;5016811;28;20483;-77
2023/05/08 13:27:31;;;;;;;8.30;7.60;;;;;;;;;;5017468;28;20550;-77
2023/05/08 13:30:03;;;;;;;10.27;9.53;;;;;;;;;;5018503;28;20535;-79
2023/05/08 13:32:36;;;;;;;9.97;9.27;;;;;;;;;;5020605;28;20431;-78
2023/05/08 13:35:10;;;;;;;10.63;9.73;;;;;;;;;;5021575;28;20455;-77
2023/05/08 13:37:45;;;;;;;11.17;10.27;;;;;;;;;;5020738;28;20444;-79
2023/05/08 13:40:17;;;;;;;12.07;11.07;;;;;;;;;;5021283;28;20816;-77
2023/05/08 13:42:52;;;;;;;12.20;11.10;;;;;;;;;;5025365;28;20444;-78
2023/05/08 13:45:33;;;;;;;11.70;10.70;;;;;;;;;;5029902;28;20503;-77
2023/05/08 13:48:02;;;;;;;13.03;10.73;;;;;;;;;;5029315;28;20431;-77
2023/05/08 13:50:36;;;;;;;10.97;10.07;;;;;;;;;;5026425;28;20479;-78
2023/05/08 13:53:08;;;;;;;11.37;10.57;;;;;;;;;;5027180;28;20481;-77
2023/05/08 13:55:37;;;;;;;12.10;11.20;;;;;;;;;;5020579;28;20830;-78
2023/05/08 13:58:12;;;;;;;10.30;9.53;;;;;;;;;;5014961;28;20899;-79
2023/05/08 14:00:40;;;;;;;10.70;9.87;;;;;;;;;;5014641;28;20446;-79
2023/05/08 14:03:08;;;;;;;11.47;10.67;;;;;;;;;;5015200;28;20474;-80
2023/05/08 14:05:37;;;;;;;11.63;10.73;;;;;;;;;;5014157;28;20486;-77
2023/05/08 14:08:07;;;;;;;11.50;10.60;;;;;;;;;;5014791;28;20471;-76
2023/05/08 14:10:40;;;;;;;12.17;11.23;;;;;;;;;;5014869;28;20478;-77
2023/05/08 14:13:10;;;;;;;11.17;10.27;;;;;;;;;;5016099;28;20462;-79
2023/05/08 14:15:41;;;;;;;22.87;21.00;;;;;;;;;;5019222;28;20546;-78
2023/05/08 14:18:18;;;;;;;11.00;10.23;;;;;;;;;;5016293;28;20536;-78
2023/05/08 14:20:52;;;;;;;11.60;10.70;;;;;;;;;;5015602;28;20490;-80
2023/05/08 14:23:22;;;;;;;11.00;10.20;;;;;;;;;;5016824;28;20527;-79
2023/05/08 14:26:09;;;;;;;11.67;10.33;;;;;;;;;;5018014;28;20455;-76
2023/05/08 14:28:43;;;;;;;12.33;11.13;;;;;;;;;;5019697;28;20475;-78
2023/05/08 14:31:15;;;;;;;15.20;13.90;;;;;;;;;;5020706;28;20510;-77
2023/05/08 14:33:45;;;;;;;15.67;14.27;;;;;;;;;;5024345;28;20466;-76
2023/05/08 14:36:17;;;;;;;19.10;17.37;;;;;;;;;;5026571;28;20455;-76
2023/05/08 14:38:48;;;;;;;17.60;16.00;;;;;;;;;;5023230;28;20458;-77
2023/05/08 14:41:19;;;;;;;19.63;17.77;;;;;;;;;;5021894;28;20523;-77
2023/05/08 14:43:49;;;;;;;18.80;17.00;;;;;;;;;;5020119;28;20451;-78
2023/05/08 14:46:21;;;;;;;18.03;16.50;;;;;;;;;;5020674;28;20809;-76
2023/05/08 14:48:53;;;;;;;18.30;16.90;;;;;;;;;;5018424;28;20475;-77
2023/05/08 14:51:21;;;;;;;20.87;18.57;;;;;;;;;;5016243;28;20487;-79